sensor_id;sensor_type;location;lat;lon;timestamp;pressure;altitude;pressure_sealevel;temperature
41654;BMP280;30790;52.030;7.110;2022-08-01T00:00:18;100807.16;;;22.54
41654;BMP280;30790;52.030;7.110;2022-08-01T00:02:44;100810.47;;;22.56
41654;BMP280;30790;52.030;7.110;2022-08-01T00:05:09;100813.19;;;22.56
41654;BMP280;30790;52.030;7.110;2022-08-01T00:07:36;100827.97;;;22.55
41654;BMP280;30790;52.030;7.110;2022-08-01T00:10:07;100830.75;;;22.60
41654;BMP280;30790;52.030;7.110;2022-08-01T00:12:32;100819.78;;;22.60
41654;BMP280;30790;52.030;7.110;2022-08-01T00:14:58;100811.25;;;22.51
41654;BMP280;30790;52.030;7.110;2022-08-01T00:17:23;100826.88;;;22.56
41654;BMP280;30790;52.030;7.110;2022-08-01T00:19:49;100824.66;;;22.52
41654;BMP280;30790;52.030;7.110;2022-08-01T00:22:14;100827.69;;;22.56
41654;BMP280;30790;52.030;7.110;2022-08-01T00:24:39;100837.03;;;22.60
41654;BMP280;30790;52.030;7.110;2022-08-01T00:27:04;100831.25;;;22.57
41654;BMP280;30790;52.030;7.110;2022-08-01T00:29:30;100814.75;;;22.46
41654;BMP280;30790;52.030;7.110;2022-08-01T00:31:55;100832.09;;;22.57
41654;BMP280;30790;52.030;7.110;2022-08-01T00:34:20;100834.56;;;22.59
41654;BMP280;30790;52.030;7.110;2022-08-01T00:36:46;100794.91;;;22.34
41654;BMP280;30790;52.030;7.110;2022-08-01T00:39:11;100822.19;;;22.51
41654;BMP280;30790;52.030;7.110;2022-08-01T00:41:37;100801.50;;;22.38
41654;BMP280;30790;52.030;7.110;2022-08-01T00:44:04;100835.38;;;22.59
41654;BMP280;30790;52.030;7.110;2022-08-01T00:46:30;100845.50;;;22.59
41654;BMP280;30790;52.030;7.110;2022-08-01T00:48:55;100832.91;;;22.58
41654;BMP280;30790;52.030;7.110;2022-08-01T00:51:22;100828.78;;;22.55
41654;BMP280;30790;52.030;7.110;2022-08-01T00:53:47;100826.81;;;22.50
41654;BMP280;30790;52.030;7.110;2022-08-01T00:56:13;100820.97;;;22.42
41654;BMP280;30790;52.030;7.110;2022-08-01T00:58:38;100836.69;;;22.51
41654;BMP280;30790;52.030;7.110;2022-08-01T01:01:03;100824.91;;;22.51
41654;BMP280;30790;52.030;7.110;2022-08-01T01:03:29;100844.94;;;22.57
41654;BMP280;30790;52.030;7.110;2022-08-01T01:06:04;100846.59;;;22.58
41654;BMP280;30790;52.030;7.110;2022-08-01T01:08:36;100838.91;;;22.55
41654;BMP280;30790;52.030;7.110;2022-08-01T01:11:13;100840.00;;;22.54
41654;BMP280;30790;52.030;7.110;2022-08-01T01:13:43;100850.16;;;22.58
41654;BMP280;30790;52.030;7.110;2022-08-01T01:16:15;100841.38;;;22.56
41654;BMP280;30790;52.030;7.110;2022-08-01T01:18:57;100832.28;;;22.50
41654;BMP280;30790;52.030;7.110;2022-08-01T01:21:57;100842.78;;;22.59
41654;BMP280;30790;52.030;7.110;2022-08-01T01:24:47;100836.44;;;22.53
41654;BMP280;30790;52.030;7.110;2022-08-01T01:27:32;100831.78;;;22.54
41654;BMP280;30790;52.030;7.110;2022-08-01T01:30:03;100838.66;;;22.56
41654;BMP280;30790;52.030;7.110;2022-08-01T01:32:36;100835.34;;;22.54
41654;BMP280;30790;52.030;7.110;2022-08-01T01:35:06;100841.38;;;22.56
41654;BMP280;30790;52.030;7.110;2022-08-01T01:37:34;100836.72;;;22.57
41654;BMP280;30790;52.030;7.110;2022-08-01T01:40:01;100839.47;;;22.57
41654;BMP280;30790;52.030;7.110;2022-08-01T01:42:28;100833.94;;;22.51
41654;BMP280;30790;52.030;7.110;2022-08-01T01:44:55;100826.31;;;22.54
41654;BMP280;30790;52.030;7.110;2022-08-01T01:47:22;100836.16;;;22.55
41654;BMP280;30790;52.030;7.110;2022-08-01T01:49:50;100825.75;;;22.51
41654;BMP280;30790;52.030;7.110;2022-08-01T01:52:18;100806.38;;;22.31
41654;BMP280;30790;52.030;7.110;2022-08-01T01:54:48;100839.47;;;22.57
41654;BMP280;30790;52.030;7.110;2022-08-01T01:57:15;100843.28;;;22.56
41654;BMP280;30790;52.030;7.110;2022-08-01T01:59:41;100832.28;;;22.50
41654;BMP280;30790;52.030;7.110;2022-08-01T02:02:09;100822.09;;;22.46
41654;BMP280;30790;52.030;7.110;2022-08-01T02:04:36;100836.72;;;22.57
41654;BMP280;30790;52.030;7.110;2022-08-01T02:07:03;100840.56;;;22.56
41654;BMP280;30790;52.030;7.110;2022-08-01T02:09:30;100822.34;;;22.44
41654;BMP280;30790;52.030;7.110;2022-08-01T02:11:57;100837.78;;;22.50
41654;BMP280;30790;52.030;7.110;2022-08-01T02:14:24;100839.41;;;22.51
41654;BMP280;30790;52.030;7.110;2022-08-01T02:16:54;100833.44;;;22.55
41654;BMP280;30790;52.030;7.110;2022-08-01T02:19:22;100832.88;;;22.52
41654;BMP280;30790;52.030;7.110;2022-08-01T02:21:51;100840.00;;;22.54
41654;BMP280;30790;52.030;7.110;2022-08-01T02:27:17;100849.28;;;22.52
41654;BMP280;30790;52.030;7.110;2022-08-01T02:29:59;100848.72;;;22.50
41654;BMP280;30790;52.030;7.110;2022-08-01T02:32:32;100848.19;;;22.54
41654;BMP280;30790;52.030;7.110;2022-08-01T02:35:02;100844.38;;;22.55
41654;BMP280;30790;52.030;7.110;2022-08-01T02:37:33;100847.09;;;22.55
41654;BMP280;30790;52.030;7.110;2022-08-01T02:39:59;100849.84;;;22.55
41654;BMP280;30790;52.030;7.110;2022-08-01T02:42:26;100837.69;;;22.45
41654;BMP280;30790;52.030;7.110;2022-08-01T02:44:53;100844.88;;;22.51
41654;BMP280;30790;52.030;7.110;2022-08-01T02:47:20;100850.09;;;22.53
41654;BMP280;30790;52.030;7.110;2022-08-01T02:49:47;100845.41;;;22.48
41654;BMP280;30790;52.030;7.110;2022-08-01T02:52:18;100856.97;;;22.56
41654;BMP280;30790;52.030;7.110;2022-08-01T02:54:46;100853.09;;;22.51
41654;BMP280;30790;52.030;7.110;2022-08-01T02:57:12;100852.28;;;22.51
41654;BMP280;30790;52.030;7.110;2022-08-01T02:59:39;100847.88;;;22.50
41654;BMP280;30790;52.030;7.110;2022-08-01T03:02:07;100844.88;;;22.51
41654;BMP280;30790;52.030;7.110;2022-08-01T03:04:33;100850.94;;;22.54
41654;BMP280;30790;52.030;7.110;2022-08-01T03:07:03;100844.88;;;22.51
41654;BMP280;30790;52.030;7.110;2022-08-01T03:09:29;100848.72;;;22.50
41654;BMP280;30790;52.030;7.110;2022-08-01T03:11:59;100859.97;;;22.54
41654;BMP280;30790;52.030;7.110;2022-08-01T03:14:26;100853.66;;;22.54
41654;BMP280;30790;52.030;7.110;2022-08-01T03:16:52;100850.88;;;22.48
41654;BMP280;30790;52.030;7.110;2022-08-01T03:19:20;100854.75;;;22.52
41654;BMP280;30790;52.030;7.110;2022-08-01T03:21:46;100857.47;;;22.52
41654;BMP280;30790;52.030;7.110;2022-08-01T03:24:13;100843.75;;;22.47
41654;BMP280;30790;52.030;7.110;2022-08-01T03:26:41;100847.63;;;22.51
41654;BMP280;30790;52.030;7.110;2022-08-01T03:29:11;100842.94;;;22.47
41654;BMP280;30790;52.030;7.110;2022-08-01T03:31:38;100852.59;;;22.55
41654;BMP280;30790;52.030;7.110;2022-08-01T03:34:07;100853.06;;;22.46
41654;BMP280;30790;52.030;7.110;2022-08-01T03:36:38;100864.59;;;22.54
41654;BMP280;30790;52.030;7.110;2022-08-01T03:39:08;100860.22;;;22.52
41654;BMP280;30790;52.030;7.110;2022-08-01T03:41:40;100847.81;;;22.45
41654;BMP280;30790;52.030;7.110;2022-08-01T03:44:18;100862.38;;;22.50
41654;BMP280;30790;52.030;7.110;2022-08-01T03:46:47;100864.59;;;22.54
41654;BMP280;30790;52.030;7.110;2022-08-01T03:49:25;100866.78;;;22.51
41654;BMP280;30790;52.030;7.110;2022-08-01T03:51:52;100850.06;;;22.48
41654;BMP280;30790;52.030;7.110;2022-08-01T03:54:21;100856.66;;;22.52
41654;BMP280;30790;52.030;7.110;2022-08-01T03:56:49;100866.53;;;22.53
41654;BMP280;30790;52.030;7.110;2022-08-01T03:59:16;100875.56;;;22.54
41654;BMP280;30790;52.030;7.110;2022-08-01T04:01:44;100861.81;;;22.48
41654;BMP280;30790;52.030;7.110;2022-08-01T04:04:10;100854.06;;;22.40
41654;BMP280;30790;52.030;7.110;2022-08-01T04:06:42;100867.56;;;22.47
41654;BMP280;30790;52.030;7.110;2022-08-01T04:09:10;100877.19;;;22.55
41654;BMP280;30790;52.030;7.110;2022-08-01T04:11:36;100876.38;;;22.54
41654;BMP280;30790;52.030;7.110;2022-08-01T04:14:01;100860.66;;;22.44
41654;BMP280;30790;52.030;7.110;2022-08-01T04:16:27;100874.97;;;22.51
41654;BMP280;30790;52.030;7.110;2022-08-01T04:18:52;100862.31;;;22.45
41654;BMP280;30790;52.030;7.110;2022-08-01T04:21:22;100871.16;;;22.52
41654;BMP280;30790;52.030;7.110;2022-08-01T04:23:48;100876.63;;;22.52
41654;BMP280;30790;52.030;7.110;2022-08-01T04:26:17;100880.72;;;22.50
41654;BMP280;30790;52.030;7.110;2022-08-01T04:28:43;100879.38;;;22.52
41654;BMP280;30790;52.030;7.110;2022-08-01T04:31:11;100869.47;;;22.46
41654;BMP280;30790;52.030;7.110;2022-08-01T04:33:40;100875.75;;;22.47
41654;BMP280;30790;52.030;7.110;2022-08-01T04:36:09;100873.59;;;22.49
41654;BMP280;30790;52.030;7.110;2022-08-01T04:38:35;100872.75;;;22.48
41654;BMP280;30790;52.030;7.110;2022-08-01T04:41:02;100879.63;;;22.51
41654;BMP280;30790;52.030;7.110;2022-08-01T04:43:28;100878.22;;;22.48
41654;BMP280;30790;52.030;7.110;2022-08-01T04:45:54;100898.78;;;22.51
41654;BMP280;30790;52.030;7.110;2022-08-01T04:48:21;100892.47;;;22.50
41654;BMP280;30790;52.030;7.110;2022-08-01T04:50:50;100893.00;;;22.47
41654;BMP280;30790;52.030;7.110;2022-08-01T04:53:17;100889.19;;;22.48
41654;BMP280;30790;52.030;7.110;2022-08-01T04:55:44;100893.81;;;22.48
41654;BMP280;30790;52.030;7.110;2022-08-01T04:58:11;100897.69;;;22.52
41654;BMP280;30790;52.030;7.110;2022-08-01T05:00:37;100888.59;;;22.46
41654;BMP280;30790;52.030;7.110;2022-08-01T05:03:02;100873.13;;;22.35
41654;BMP280;30790;52.030;7.110;2022-08-01T05:05:27;100897.94;;;22.50
41654;BMP280;30790;52.030;7.110;2022-08-01T05:07:53;100901.78;;;22.49
41654;BMP280;30790;52.030;7.110;2022-08-01T05:10:18;100896.31;;;22.49
41654;BMP280;30790;52.030;7.110;2022-08-01T05:12:43;100892.16;;;22.47
41654;BMP280;30790;52.030;7.110;2022-08-01T05:15:09;100902.34;;;22.51
41654;BMP280;30790;52.030;7.110;2022-08-01T05:17:34;100897.28;;;22.43
41654;BMP280;30790;52.030;7.110;2022-08-01T05:19:59;100901.19;;;22.47
41654;BMP280;30790;52.030;7.110;2022-08-01T05:22:25;100913.03;;;22.53
41654;BMP280;30790;52.030;7.110;2022-08-01T05:24:51;100902.09;;;22.53
41654;BMP280;30790;52.030;7.110;2022-08-01T05:27:17;100892.34;;;22.40
41654;BMP280;30790;52.030;7.110;2022-08-01T05:29:43;100906.97;;;22.51
41654;BMP280;30790;52.030;7.110;2022-08-01T05:32:08;100912.47;;;22.51
41654;BMP280;30790;52.030;7.110;2022-08-01T05:34:34;100906.06;;;22.45
41654;BMP280;30790;52.030;7.110;2022-08-01T05:36:59;100917.66;;;22.52
41654;BMP280;30790;52.030;7.110;2022-08-01T05:39:25;100906.06;;;22.45
41654;BMP280;30790;52.030;7.110;2022-08-01T05:41:50;100918.50;;;22.53
41654;BMP280;30790;52.030;7.110;2022-08-01T05:44:15;100925.31;;;22.50
41654;BMP280;30790;52.030;7.110;2022-08-01T05:46:41;100920.66;;;22.51
41654;BMP280;30790;52.030;7.110;2022-08-01T05:49:06;100905.25;;;22.45
41654;BMP280;30790;52.030;7.110;2022-08-01T05:51:32;100918.75;;;22.51
41654;BMP280;30790;52.030;7.110;2022-08-01T05:53:57;100929.94;;;22.50
41654;BMP280;30790;52.030;7.110;2022-08-01T05:56:23;100924.78;;;22.54
41654;BMP280;30790;52.030;7.110;2022-08-01T05:58:49;100927.53;;;22.54
41654;BMP280;30790;52.030;7.110;2022-08-01T06:01:16;100929.69;;;22.51
41654;BMP280;30790;52.030;7.110;2022-08-01T06:03:41;100919.19;;;22.43
41654;BMP280;30790;52.030;7.110;2022-08-01T06:06:06;100910.41;;;22.41
41654;BMP280;30790;52.030;7.110;2022-08-01T06:08:32;100914.06;;;22.47
41654;BMP280;30790;52.030;7.110;2022-08-01T06:10:58;100927.59;;;22.59
41654;BMP280;30790;52.030;7.110;2022-08-01T06:13:26;100922.56;;;22.50
41654;BMP280;30790;52.030;7.110;2022-08-01T06:15:51;100916.00;;;22.51
41654;BMP280;30790;52.030;7.110;2022-08-01T06:18:17;100913.03;;;22.53
41654;BMP280;30790;52.030;7.110;2022-08-01T06:20:42;100913.84;;;22.54
41654;BMP280;30790;52.030;7.110;2022-08-01T06:23:08;100923.72;;;22.55
41654;BMP280;30790;52.030;7.110;2022-08-01T06:25:34;100933.06;;;22.59
41654;BMP280;30790;52.030;7.110;2022-08-01T06:28:00;100926.50;;;22.60
41654;BMP280;30790;52.030;7.110;2022-08-01T06:30:26;100936.34;;;22.61
41654;BMP280;30790;52.030;7.110;2022-08-01T06:32:51;100924.22;;;22.51
41654;BMP280;30790;52.030;7.110;2022-08-01T06:35:17;100928.88;;;22.51
41654;BMP280;30790;52.030;7.110;2022-08-01T06:37:42;100936.88;;;22.58
41654;BMP280;30790;52.030;7.110;2022-08-01T06:40:10;100936.00;;;22.52
41654;BMP280;30790;52.030;7.110;2022-08-01T06:42:36;100929.63;;;22.46
41654;BMP280;30790;52.030;7.110;2022-08-01T06:45:06;100934.50;;;22.44
41654;BMP280;30790;52.030;7.110;2022-08-01T06:47:32;100934.25;;;22.46
41654;BMP280;30790;52.030;7.110;2022-08-01T06:49:58;100956.53;;;22.55
41654;BMP280;30790;52.030;7.110;2022-08-01T06:52:23;100907.25;;;22.28
41654;BMP280;30790;52.030;7.110;2022-08-01T06:54:48;100934.25;;;22.46
41654;BMP280;30790;52.030;7.110;2022-08-01T06:57:13;100942.81;;;22.49
41654;BMP280;30790;52.030;7.110;2022-08-01T06:59:39;100937.84;;;22.46
41654;BMP280;30790;52.030;7.110;2022-08-01T07:02:04;100955.16;;;22.52
41654;BMP280;30790;52.030;7.110;2022-08-01T07:04:30;100950.75;;;22.51
41654;BMP280;30790;52.030;7.110;2022-08-01T07:06:56;100960.31;;;22.48
41654;BMP280;30790;52.030;7.110;2022-08-01T07:09:21;100945.78;;;22.48
41654;BMP280;30790;52.030;7.110;2022-08-01T07:11:46;100952.16;;;22.54
41654;BMP280;30790;52.030;7.110;2022-08-01T07:14:12;100962.59;;;22.57
41654;BMP280;30790;52.030;7.110;2022-08-01T07:16:37;100957.63;;;22.54
41654;BMP280;30790;52.030;7.110;2022-08-01T07:19:02;100960.16;;;22.60
41654;BMP280;30790;52.030;7.110;2022-08-01T07:21:28;100954.88;;;22.54
41654;BMP280;30790;52.030;7.110;2022-08-01T07:23:53;100958.50;;;22.59
41654;BMP280;30790;52.030;7.110;2022-08-01T07:26:18;100968.16;;;22.67
41654;BMP280;30790;52.030;7.110;2022-08-01T07:28:44;100960.47;;;22.64
41654;BMP280;30790;52.030;7.110;2022-08-01T07:31:09;100951.06;;;22.55
41654;BMP280;30790;52.030;7.110;2022-08-01T07:33:34;100955.16;;;22.52
41654;BMP280;30790;52.030;7.110;2022-08-01T07:36:00;100960.94;;;22.56
41654;BMP280;30790;52.030;7.110;2022-08-01T07:38:25;100973.63;;;22.67
41654;BMP280;30790;52.030;7.110;2022-08-01T07:40:50;100974.66;;;22.61
41654;BMP280;30790;52.030;7.110;2022-08-01T07:43:16;100979.31;;;22.60
41654;BMP280;30790;52.030;7.110;2022-08-01T07:45:41;100979.81;;;22.57
41654;BMP280;30790;52.030;7.110;2022-08-01T07:48:07;100987.53;;;22.60
41654;BMP280;30790;52.030;7.110;2022-08-01T07:50:33;100986.63;;;22.55
41654;BMP280;30790;52.030;7.110;2022-08-01T07:52:59;101000.38;;;22.60
41654;BMP280;30790;52.030;7.110;2022-08-01T07:55:24;100993.81;;;22.61
41654;BMP280;30790;52.030;7.110;2022-08-01T07:57:50;100967.28;;;22.39
41654;BMP280;30790;52.030;7.110;2022-08-01T08:00:16;101011.63;;;22.63
41654;BMP280;30790;52.030;7.110;2022-08-01T08:02:51;100994.84;;;22.55
41654;BMP280;30790;52.030;7.110;2022-08-01T08:05:22;100987.66;;;22.48
41654;BMP280;30790;52.030;7.110;2022-08-01T08:07:49;100967.47;;;22.33
41654;BMP280;30790;52.030;7.110;2022-08-01T08:10:18;100959.50;;;22.31
41654;BMP280;30790;52.030;7.110;2022-08-01T08:12:44;100997.50;;;22.49
41654;BMP280;30790;52.030;7.110;2022-08-01T08:15:12;101006.59;;;22.55
41654;BMP280;30790;52.030;7.110;2022-08-01T08:17:38;100956.47;;;22.28
41654;BMP280;30790;52.030;7.110;2022-08-01T08:20:07;101004.38;;;22.52
41654;BMP280;30790;52.030;7.110;2022-08-01T08:22:33;101012.97;;;22.61
41654;BMP280;30790;52.030;7.110;2022-08-01T08:24:59;101029.69;;;22.64
41654;BMP280;30790;52.030;7.110;2022-08-01T08:27:26;101018.44;;;22.61
41654;BMP280;30790;52.030;7.110;2022-08-01T08:29:51;101016.28;;;22.63
41654;BMP280;30790;52.030;7.110;2022-08-01T08:32:17;101026.13;;;22.64
41654;BMP280;30790;52.030;7.110;2022-08-01T08:34:42;101029.69;;;22.64
41654;BMP280;30790;52.030;7.110;2022-08-01T08:37:08;101028.88;;;22.64
41654;BMP280;30790;52.030;7.110;2022-08-01T08:39:33;101020.59;;;22.59
41654;BMP280;30790;52.030;7.110;2022-08-01T08:41:59;101037.66;;;22.66
41654;BMP280;30790;52.030;7.110;2022-08-01T08:44:25;101033.53;;;22.63
41654;BMP280;30790;52.030;7.110;2022-08-01T08:46:51;101039.81;;;22.64
41654;BMP280;30790;52.030;7.110;2022-08-01T08:49:22;101045.28;;;22.64
41654;BMP280;30790;52.030;7.110;2022-08-01T08:51:50;101027.66;;;22.55
41654;BMP280;30790;52.030;7.110;2022-08-01T08:54:17;101038.69;;;22.60
41654;BMP280;30790;52.030;7.110;2022-08-01T08:56:44;101052.41;;;22.65
41654;BMP280;30790;52.030;7.110;2022-08-01T08:59:11;101055.41;;;22.63
41654;BMP280;30790;52.030;7.110;2022-08-01T09:01:41;101059.53;;;22.66
41654;BMP280;30790;52.030;7.110;2022-08-01T09:04:06;101042.00;;;22.62
41654;BMP280;30790;52.030;7.110;2022-08-01T09:06:32;101050.75;;;22.64
41654;BMP280;30790;52.030;7.110;2022-08-01T09:08:58;101065.59;;;22.68
41654;BMP280;30790;52.030;7.110;2022-08-01T09:11:24;101065.34;;;22.69
41654;BMP280;30790;52.030;7.110;2022-08-01T09:16:27;101064.50;;;22.69
41654;BMP280;30790;52.030;7.110;2022-08-01T09:18:52;101065.59;;;22.68
41654;BMP280;30790;52.030;7.110;2022-08-01T09:21:20;101061.72;;;22.64
41654;BMP280;30790;52.030;7.110;2022-08-01T09:23:55;101071.63;;;22.70
41654;BMP280;30790;52.030;7.110;2022-08-01T09:26:33;101069.97;;;22.69
41654;BMP280;30790;52.030;7.110;2022-08-01T09:28:59;101078.13;;;22.64
41654;BMP280;30790;52.030;7.110;2022-08-01T09:31:27;101086.34;;;22.64
41654;BMP280;30790;52.030;7.110;2022-08-01T09:33:59;101084.75;;;22.68
41654;BMP280;30790;52.030;7.110;2022-08-01T09:36:28;101091.56;;;22.65
41654;BMP280;30790;52.030;7.110;2022-08-01T09:39:12;101091.56;;;22.65
41654;BMP280;30790;52.030;7.110;2022-08-01T09:41:38;101092.31;;;22.61
41654;BMP280;30790;52.030;7.110;2022-08-01T09:44:03;101097.28;;;22.64
41654;BMP280;30790;52.030;7.110;2022-08-01T09:46:29;101084.38;;;22.59
41654;BMP280;30790;52.030;7.110;2022-08-01T09:49:00;101106.31;;;22.64
41654;BMP280;30790;52.030;7.110;2022-08-01T09:51:38;101110.13;;;22.63
41654;BMP280;30790;52.030;7.110;2022-08-01T09:54:06;101109.31;;;22.63
41654;BMP280;30790;52.030;7.110;2022-08-01T09:56:42;101102.69;;;22.59
41654;BMP280;30790;52.030;7.110;2022-08-01T09:59:08;101103.19;;;22.56
41654;BMP280;30790;52.030;7.110;2022-08-01T10:01:48;101110.66;;;22.60
41654;BMP280;30790;52.030;7.110;2022-08-01T10:04:16;101089.94;;;22.47
41654;BMP280;30790;52.030;7.110;2022-08-01T10:06:44;101110.66;;;22.60
41654;BMP280;30790;52.030;7.110;2022-08-01T10:09:12;101110.66;;;22.60
41654;BMP280;30790;52.030;7.110;2022-08-01T10:11:42;101104.34;;;22.60
41654;BMP280;30790;52.030;7.110;2022-08-01T10:14:08;101102.94;;;22.57
41654;BMP280;30790;52.030;7.110;2022-08-01T10:16:35;101111.47;;;22.61
41654;BMP280;30790;52.030;7.110;2022-08-01T10:19:03;101101.88;;;22.58
41654;BMP280;30790;52.030;7.110;2022-08-01T10:21:32;101105.44;;;22.59
41654;BMP280;30790;52.030;7.110;2022-08-01T10:23:58;101115.88;;;22.62
41654;BMP280;30790;52.030;7.110;2022-08-01T10:26:25;101111.47;;;22.61
41654;BMP280;30790;52.030;7.110;2022-08-01T10:28:52;101106.00;;;22.61
41654;BMP280;30790;52.030;7.110;2022-08-01T10:31:18;101121.91;;;22.64
41654;BMP280;30790;52.030;7.110;2022-08-01T10:33:44;101114.38;;;22.54
41654;BMP280;30790;52.030;7.110;2022-08-01T10:36:10;101123.25;;;22.61
41654;BMP280;30790;52.030;7.110;2022-08-01T10:38:36;101114.97;;;22.56
41654;BMP280;30790;52.030;7.110;2022-08-01T10:41:03;101119.69;;;22.61
41654;BMP280;30790;52.030;7.110;2022-08-01T10:43:29;101121.91;;;22.64
41654;BMP280;30790;52.030;7.110;2022-08-01T10:45:55;101111.72;;;22.59
41654;BMP280;30790;52.030;7.110;2022-08-01T10:48:26;101127.19;;;22.70
41654;BMP280;30790;52.030;7.110;2022-08-01T10:50:58;101131.94;;;22.75
41654;BMP280;30790;52.030;7.110;2022-08-01T10:53:28;101124.81;;;22.74
41654;BMP280;30790;52.030;7.110;2022-08-01T10:58:24;101125.72;;;22.79
41654;BMP280;30790;52.030;7.110;2022-08-01T11:01:30;101115.16;;;22.71
41654;BMP280;30790;52.030;7.110;2022-08-01T11:09:01;101126.78;;;22.78
41654;BMP280;30790;52.030;7.110;2022-08-01T11:11:26;101107.22;;;22.70
41654;BMP280;30790;52.030;7.110;2022-08-01T11:14:04;101127.88;;;22.77
41654;BMP280;30790;52.030;7.110;2022-08-01T11:16:36;101127.88;;;22.77
41654;BMP280;30790;52.030;7.110;2022-08-01T11:19:03;101123.72;;;22.75
41654;BMP280;30790;52.030;7.110;2022-08-01T11:27:20;101118.84;;;22.77
41654;BMP280;30790;52.030;7.110;2022-08-01T11:32:48;101119.25;;;22.86
41654;BMP280;30790;52.030;7.110;2022-08-01T11:35:14;101116.75;;;22.84
41654;BMP280;30790;52.030;7.110;2022-08-01T11:37:40;101112.94;;;22.85
41654;BMP280;30790;52.030;7.110;2022-08-01T11:40:25;101103.66;;;22.86
41654;BMP280;30790;52.030;7.110;2022-08-01T11:43:15;101112.44;;;22.71
41654;BMP280;30790;52.030;7.110;2022-08-01T11:45:53;101107.22;;;22.70
41654;BMP280;30790;52.030;7.110;2022-08-01T11:48:23;101110.63;;;22.77
41654;BMP280;30790;52.030;7.110;2022-08-01T11:50:53;101113.44;;;22.82
41654;BMP280;30790;52.030;7.110;2022-08-01T11:53:18;101089.22;;;22.74
41654;BMP280;30790;52.030;7.110;2022-08-01T11:55:54;101100.41;;;22.72
41654;BMP280;30790;52.030;7.110;2022-08-01T11:58:22;101113.63;;;22.75
41654;BMP280;30790;52.030;7.110;2022-08-01T12:00:56;101118.94;;;22.82
41654;BMP280;30790;52.030;7.110;2022-08-01T12:03:29;101109.53;;;22.78
41654;BMP280;30790;52.030;7.110;2022-08-01T12:05:55;101105.06;;;22.72
41654;BMP280;30790;52.030;7.110;2022-08-01T12:08:30;101116.94;;;22.77
41654;BMP280;30790;52.030;7.110;2022-08-01T12:10:58;101118.00;;;22.76
41654;BMP280;30790;52.030;7.110;2022-08-01T12:13:24;101117.44;;;22.74
41654;BMP280;30790;52.030;7.110;2022-08-01T12:15:50;101116.00;;;22.72
41654;BMP280;30790;52.030;7.110;2022-08-01T12:18:16;101118.56;;;22.78
41654;BMP280;30790;52.030;7.110;2022-08-01T12:20:43;101116.94;;;22.77
41654;BMP280;30790;52.030;7.110;2022-08-01T12:23:12;101115.25;;;22.76
41654;BMP280;30790;52.030;7.110;2022-08-01T12:25:38;101104.72;;;22.68
41654;BMP280;30790;52.030;7.110;2022-08-01T12:28:09;101111.97;;;22.74
41654;BMP280;30790;52.030;7.110;2022-08-01T12:30:37;101103.91;;;22.68
41654;BMP280;30790;52.030;7.110;2022-08-01T12:33:04;101112.44;;;22.71
41654;BMP280;30790;52.030;7.110;2022-08-01T12:35:30;101113.25;;;22.72
41654;BMP280;30790;52.030;7.110;2022-08-01T12:38:16;101114.91;;;22.73
41654;BMP280;30790;52.030;7.110;2022-08-01T12:40:44;101110.78;;;22.70
41654;BMP280;30790;52.030;7.110;2022-08-01T12:43:09;101108.28;;;22.69
41654;BMP280;30790;52.030;7.110;2022-08-01T12:45:42;101119.09;;;22.75
41654;BMP280;30790;52.030;7.110;2022-08-01T12:48:16;101108.97;;;22.76
41654;BMP280;30790;52.030;7.110;2022-08-01T12:50:44;101117.19;;;22.76
41654;BMP280;30790;52.030;7.110;2022-08-01T12:53:10;101120.75;;;22.76
41654;BMP280;30790;52.030;7.110;2022-08-01T12:55:46;101120.22;;;22.79
41654;BMP280;30790;52.030;7.110;2022-08-01T12:58:13;101120.50;;;22.78
41654;BMP280;30790;52.030;7.110;2022-08-01T13:00:40;101116.81;;;22.72
41654;BMP280;30790;52.030;7.110;2022-08-01T13:03:12;101120.16;;;22.74
41654;BMP280;30790;52.030;7.110;2022-08-01T13:05:45;101123.22;;;22.78
41654;BMP280;30790;52.030;7.110;2022-08-01T13:08:13;101133.69;;;22.81
41654;BMP280;30790;52.030;7.110;2022-08-01T13:10:39;101126.31;;;22.81
41654;BMP280;30790;52.030;7.110;2022-08-01T13:13:05;101137.25;;;22.81
41654;BMP280;30790;52.030;7.110;2022-08-01T13:15:32;101138.09;;;22.82
41654;BMP280;30790;52.030;7.110;2022-08-01T13:17:59;101129.28;;;22.80
41654;BMP280;30790;52.030;7.110;2022-08-01T13:20:30;101125.13;;;22.77
41654;BMP280;30790;52.030;7.110;2022-08-01T13:23:14;101127.38;;;22.80
41654;BMP280;30790;52.030;7.110;2022-08-01T13:25:50;101123.56;;;22.81
41654;BMP280;30790;52.030;7.110;2022-08-01T13:28:17;101121.56;;;22.77
41654;BMP280;30790;52.030;7.110;2022-08-01T13:33:20;101114.75;;;22.79
41654;BMP280;30790;52.030;7.110;2022-08-01T13:35:46;101120.59;;;22.83
41654;BMP280;30790;52.030;7.110;2022-08-01T13:38:13;101090.72;;;22.65
41654;BMP280;30790;52.030;7.110;2022-08-01T13:40:38;101105.66;;;22.74
41654;BMP280;30790;52.030;7.110;2022-08-01T13:43:03;101097.50;;;22.79
41654;BMP280;30790;52.030;7.110;2022-08-01T13:45:28;101106.38;;;22.86
41654;BMP280;30790;52.030;7.110;2022-08-01T13:47:54;101095.28;;;22.76
41654;BMP280;30790;52.030;7.110;2022-08-01T13:50:19;101108.28;;;22.86
41654;BMP280;30790;52.030;7.110;2022-08-01T13:52:44;101105.81;;;22.84
41654;BMP280;30790;52.030;7.110;2022-08-01T13:55:10;101109.28;;;22.79
41654;BMP280;30790;52.030;7.110;2022-08-01T13:57:35;101101.84;;;22.75
41654;BMP280;30790;52.030;7.110;2022-08-01T14:00:01;101105.31;;;22.70
41654;BMP280;30790;52.030;7.110;2022-08-01T14:02:27;101109.31;;;22.63
41654;BMP280;30790;52.030;7.110;2022-08-01T14:04:53;101113.25;;;22.72
41654;BMP280;30790;52.030;7.110;2022-08-01T14:07:19;101057.03;;;22.42
41654;BMP280;30790;52.030;7.110;2022-08-01T14:09:45;101112.13;;;22.68
41654;BMP280;30790;52.030;7.110;2022-08-01T14:12:10;101105.56;;;22.69
41654;BMP280;30790;52.030;7.110;2022-08-01T14:14:36;101108.03;;;22.70
41654;BMP280;30790;52.030;7.110;2022-08-01T14:17:02;101103.78;;;22.58
41654;BMP280;30790;52.030;7.110;2022-08-01T14:19:27;101098.22;;;22.52
41654;BMP280;30790;52.030;7.110;2022-08-01T14:21:52;101095.63;;;22.63
41654;BMP280;30790;52.030;7.110;2022-08-01T14:24:18;101096.84;;;22.72